sensor_id;sensor_type;location;lat;lon;timestamp;pressure;altitude;pressure_sealevel;temperature;humidity
32243;BME280;18731;42.830;24.390;2022-08-19T03:01:28;94373.03;;;16.66;79.64
32243;BME280;18731;42.830;24.390;2022-08-19T03:03:55;94375.81;;;16.74;79.26
32243;BME280;18731;42.830;24.390;2022-08-19T03:06:22;94382.59;;;16.64;79.96
32243;BME280;18731;42.830;24.390;2022-08-19T03:08:48;94375.72;;;16.66;79.79
32243;BME280;18731;42.830;24.390;2022-08-19T03:11:23;94380.19;;;16.55;80.64
32243;BME280;18731;42.830;24.390;2022-08-19T03:13:50;94371.25;;;16.48;80.68
32243;BME280;18731;42.830;24.390;2022-08-19T03:16:17;94367.06;;;16.50;80.01
32243;BME280;18731;42.830;24.390;2022-08-19T03:18:43;94369.38;;;16.52;80.17
32243;BME280;18731;42.830;24.390;2022-08-19T03:21:14;94382.47;;;16.53;80.58
32243;BME280;18731;42.830;24.390;2022-08-19T03:23:40;94380.13;;;16.48;80.65
32243;BME280;18731;42.830;24.390;2022-08-19T03:26:05;94385.53;;;16.52;80.19
32243;BME280;18731;42.830;24.390;2022-08-19T03:28:31;94380.19;;;16.55;80.03
32243;BME280;18731;42.830;24.390;2022-08-19T03:31:12;94370.06;;;16.45;80.56
32243;BME280;18731;42.830;24.390;2022-08-19T03:33:39;94379.38;;;16.51;80.78
32243;BME280;18731;42.830;24.390;2022-08-19T03:36:09;94385.19;;;16.53;80.41
32243;BME280;18731;42.830;24.390;2022-08-19T03:38:38;94384.00;;;16.51;80.37
32243;BME280;18731;42.830;24.390;2022-08-19T03:41:13;94384.06;;;16.58;79.97
32243;BME280;18731;42.830;24.390;2022-08-19T03:43:42;94392.53;;;16.56;80.08
32243;BME280;18731;42.830;24.390;2022-08-19T03:46:11;94384.44;;;16.56;80.13
32243;BME280;18731;42.830;24.390;2022-08-19T03:48:39;94384.78;;;16.51;80.57
32243;BME280;18731;42.830;24.390;2022-08-19T03:51:06;94390.16;;;16.51;80.48
32243;BME280;18731;42.830;24.390;2022-08-19T03:53:33;94386.00;;;16.57;80.44
32243;BME280;18731;42.830;24.390;2022-08-19T03:56:00;94395.25;;;16.60;80.59
32243;BME280;18731;42.830;24.390;2022-08-19T03:58:28;94391.06;;;16.62;80.51
32243;BME280;18731;42.830;24.390;2022-08-19T04:00:55;94407.31;;;16.69;80.24
32243;BME280;18731;42.830;24.390;2022-08-19T04:03:23;94409.63;;;16.67;80.52
32243;BME280;18731;42.830;24.390;2022-08-19T04:05:49;94393.34;;;16.60;80.38
32243;BME280;18731;42.830;24.390;2022-08-19T04:08:16;94412.75;;;16.73;80.43
32243;BME280;18731;42.830;24.390;2022-08-19T04:10:48;94410.44;;;16.71;80.43
32243;BME280;18731;42.830;24.390;2022-08-19T04:13:16;94407.28;;;16.66;80.98
32243;BME280;18731;42.830;24.390;2022-08-19T04:15:44;94414.22;;;16.67;80.87
32243;BME280;18731;42.830;24.390;2022-08-19T04:18:10;94412.81;;;16.77;80.20
32243;BME280;18731;42.830;24.390;2022-08-19T04:20:41;94398.06;;;16.67;80.55
32243;BME280;18731;42.830;24.390;2022-08-19T04:23:07;94418.63;;;16.82;80.39
32243;BME280;18731;42.830;24.390;2022-08-19T04:25:38;94421.38;;;16.86;80.23
32243;BME280;18731;42.830;24.390;2022-08-19T04:28:05;94417.16;;;16.88;80.19
32243;BME280;18731;42.830;24.390;2022-08-19T04:30:31;94416.06;;;16.93;80.17
32243;BME280;18731;42.830;24.390;2022-08-19T04:33:02;94420.72;;;16.96;79.94
32243;BME280;18731;42.830;24.390;2022-08-19T04:35:35;94413.03;;;16.98;80.26
32243;BME280;18731;42.830;24.390;2022-08-19T04:38:00;94395.63;;;16.92;80.25
32243;BME280;18731;42.830;24.390;2022-08-19T04:40:26;94410.06;;;17.10;80.28
32243;BME280;18731;42.830;24.390;2022-08-19T04:43:10;94410.09;;;17.14;80.57
32243;BME280;18731;42.830;24.390;2022-08-19T04:45:37;94400.13;;;17.18;80.31
32243;BME280;18731;42.830;24.390;2022-08-19T04:48:03;94402.66;;;17.44;79.96
32243;BME280;18731;42.830;24.390;2022-08-19T04:50:30;94404.31;;;17.59;79.43
32243;BME280;18731;42.830;24.390;2022-08-19T04:52:56;94396.59;;;17.58;78.95
32243;BME280;18731;42.830;24.390;2022-08-19T04:55:22;94387.06;;;17.67;79.20
32243;BME280;18731;42.830;24.390;2022-08-19T04:57:48;94397.22;;;17.88;78.91
32243;BME280;18731;42.830;24.390;2022-08-19T05:00:14;94401.13;;;17.94;78.48
32243;BME280;18731;42.830;24.390;2022-08-19T05:02:40;94388.41;;;17.98;78.50
32243;BME280;18731;42.830;24.390;2022-08-19T05:05:06;94389.66;;;18.12;77.92
32243;BME280;18731;42.830;24.390;2022-08-19T05:07:32;94394.03;;;18.30;77.07
32243;BME280;18731;42.830;24.390;2022-08-19T05:09:58;94391.72;;;18.36;76.95
32243;BME280;18731;42.830;24.390;2022-08-19T05:12:24;94396.06;;;18.55;76.50
32243;BME280;18731;42.830;24.390;2022-08-19T05:14:50;94391.91;;;18.79;75.58
32243;BME280;18731;42.830;24.390;2022-08-19T05:17:17;94366.44;;;18.76;75.22
32243;BME280;18731;42.830;24.390;2022-08-19T05:19:43;94387.75;;;19.13;74.62
32243;BME280;18731;42.830;24.390;2022-08-19T05:22:27;94381.97;;;19.22;73.92
32243;BME280;18731;42.830;24.390;2022-08-19T05:25:07;94376.94;;;19.35;73.53
32243;BME280;18731;42.830;24.390;2022-08-19T05:27:33;94369.22;;;19.47;72.89
32243;BME280;18731;42.830;24.390;2022-08-19T05:29:59;94375.03;;;19.71;72.58
32243;BME280;18731;42.830;24.390;2022-08-19T05:32:26;94369.59;;;19.88;71.91
32243;BME280;18731;42.830;24.390;2022-08-19T05:34:52;94368.03;;;20.02;71.15
32243;BME280;18731;42.830;24.390;2022-08-19T05:37:20;94375.69;;;20.28;71.05
32243;BME280;18731;42.830;24.390;2022-08-19T05:39:47;94374.91;;;20.42;70.31
32243;BME280;18731;42.830;24.390;2022-08-19T05:42:14;94385.63;;;20.70;70.05
32243;BME280;18731;42.830;24.390;2022-08-19T05:44:43;94378.59;;;20.91;68.97
32243;BME280;18731;42.830;24.390;2022-08-19T05:47:10;94384.28;;;21.10;68.60
32243;BME280;18731;42.830;24.390;2022-08-19T05:49:37;94381.47;;;21.32;68.12
32243;BME280;18731;42.830;24.390;2022-08-19T05:52:09;94382.03;;;21.57;67.64
32243;BME280;18731;42.830;24.390;2022-08-19T05:54:40;94388.81;;;21.83;67.42
32243;BME280;18731;42.830;24.390;2022-08-19T05:57:07;94386.28;;;22.06;67.54
32243;BME280;18731;42.830;24.390;2022-08-19T05:59:34;94386.81;;;22.32;66.35
32243;BME280;18731;42.830;24.390;2022-08-19T06:02:01;94384.97;;;22.56;65.85
32243;BME280;18731;42.830;24.390;2022-08-19T06:04:27;94366.91;;;22.72;64.67
32243;BME280;18731;42.830;24.390;2022-08-19T06:06:54;94376.31;;;22.98;64.08
32243;BME280;18731;42.830;24.390;2022-08-19T06:09:22;94381.09;;;23.18;61.31
32243;BME280;18731;42.830;24.390;2022-08-19T06:11:51;94374.91;;;23.44;59.86
32243;BME280;18731;42.830;24.390;2022-08-19T06:14:24;94384.34;;;23.63;59.11
32243;BME280;18731;42.830;24.390;2022-08-19T06:16:51;94377.72;;;23.87;58.68
32243;BME280;18731;42.830;24.390;2022-08-19T06:19:20;94367.00;;;24.00;57.84
32243;BME280;18731;42.830;24.390;2022-08-19T06:21:48;94377.00;;;24.30;59.63
32243;BME280;18731;42.830;24.390;2022-08-19T06:24:17;94375.13;;;24.47;60.68
32243;BME280;18731;42.830;24.390;2022-08-19T06:26:46;94376.31;;;24.65;59.98
32243;BME280;18731;42.830;24.390;2022-08-19T06:29:14;94380.84;;;24.72;59.76
32243;BME280;18731;42.830;24.390;2022-08-19T06:31:43;94372.63;;;24.92;59.96
32243;BME280;18731;42.830;24.390;2022-08-19T06:34:09;94372.63;;;25.12;57.92
32243;BME280;18731;42.830;24.390;2022-08-19T06:36:39;94372.50;;;25.35;59.31
32243;BME280;18731;42.830;24.390;2022-08-19T06:39:09;94379.09;;;25.54;59.64
32243;BME280;18731;42.830;24.390;2022-08-19T06:41:39;94377.16;;;25.71;57.40
32243;BME280;18731;42.830;24.390;2022-08-19T06:44:06;94369.28;;;25.89;57.75
32243;BME280;18731;42.830;24.390;2022-08-19T06:46:32;94373.19;;;26.20;57.81
32243;BME280;18731;42.830;24.390;2022-08-19T06:48:58;94380.88;;;26.42;55.58
32243;BME280;18731;42.830;24.390;2022-08-19T06:51:25;94373.94;;;26.66;54.93
32243;BME280;18731;42.830;24.390;2022-08-19T06:53:54;94371.25;;;26.91;54.29
32243;BME280;18731;42.830;24.390;2022-08-19T06:56:23;94364.31;;;27.16;54.95
32243;BME280;18731;42.830;24.390;2022-08-19T06:58:50;94369.13;;;27.37;53.80
32243;BME280;18731;42.830;24.390;2022-08-19T07:01:18;94363.09;;;27.55;54.66
32243;BME280;18731;42.830;24.390;2022-08-19T07:03:44;94370.91;;;27.69;53.21
32243;BME280;18731;42.830;24.390;2022-08-19T07:06:14;94362.41;;;27.89;52.03
32243;BME280;18731;42.830;24.390;2022-08-19T07:08:44;94363.81;;;28.06;50.53
32243;BME280;18731;42.830;24.390;2022-08-19T07:11:12;94363.31;;;28.33;52.04
32243;BME280;18731;42.830;24.390;2022-08-19T07:13:40;94356.94;;;28.58;46.77
32243;BME280;18731;42.830;24.390;2022-08-19T07:16:15;94361.31;;;28.90;44.39
32243;BME280;18731;42.830;24.390;2022-08-19T07:18:42;94364.66;;;29.16;46.55
32243;BME280;18731;42.830;24.390;2022-08-19T07:21:10;94343.81;;;29.37;46.43
32243;BME280;18731;42.830;24.390;2022-08-19T07:23:36;94347.16;;;29.72;45.75
32243;BME280;18731;42.830;24.390;2022-08-19T07:26:24;94349.50;;;29.92;42.25
32243;BME280;18731;42.830;24.390;2022-08-19T07:28:51;94350.28;;;29.92;43.38
32243;BME280;18731;42.830;24.390;2022-08-19T07:31:19;94339.25;;;29.92;41.01
32243;BME280;18731;42.830;24.390;2022-08-19T07:33:47;94343.91;;;30.14;40.98
32243;BME280;18731;42.830;24.390;2022-08-19T07:36:16;94346.06;;;30.19;41.02
32243;BME280;18731;42.830;24.390;2022-08-19T07:38:44;94341.16;;;30.23;40.60
32243;BME280;18731;42.830;24.390;2022-08-19T07:41:13;94341.78;;;30.27;41.28
32243;BME280;18731;42.830;24.390;2022-08-19T07:43:40;94327.09;;;30.39;39.13
32243;BME280;18731;42.830;24.390;2022-08-19T07:46:06;94335.03;;;30.55;39.87
32243;BME280;18731;42.830;24.390;2022-08-19T07:48:32;94333.19;;;30.52;39.57
32243;BME280;18731;42.830;24.390;2022-08-19T07:51:01;94333.19;;;30.70;39.00
32243;BME280;18731;42.830;24.390;2022-08-19T07:53:29;94338.66;;;30.98;38.28
32243;BME280;18731;42.830;24.390;2022-08-19T07:55:56;94336.00;;;31.13;40.76
32243;BME280;18731;42.830;24.390;2022-08-19T07:58:25;94326.25;;;31.02;37.18
32243;BME280;18731;42.830;24.390;2022-08-19T08:00:51;94331.44;;;31.10;35.50
32243;BME280;18731;42.830;24.390;2022-08-19T08:03:20;94332.66;;;31.27;36.08
32243;BME280;18731;42.830;24.390;2022-08-19T08:05:46;94334.66;;;31.59;36.49
32243;BME280;18731;42.830;24.390;2022-08-19T08:08:30;94331.72;;;31.63;35.09
32243;BME280;18731;42.830;24.390;2022-08-19T08:11:04;94327.06;;;31.78;35.44
32243;BME280;18731;42.830;24.390;2022-08-19T08:13:30;94326.78;;;31.67;34.56
32243;BME280;18731;42.830;24.390;2022-08-19T08:15:58;94318.72;;;31.87;35.45
32243;BME280;18731;42.830;24.390;2022-08-19T08:18:24;94319.78;;;32.14;34.70
32243;BME280;18731;42.830;24.390;2022-08-19T08:20:50;94320.72;;;32.35;35.93
32243;BME280;18731;42.830;24.390;2022-08-19T08:23:16;94326.56;;;32.66;35.74
32243;BME280;18731;42.830;24.390;2022-08-19T08:25:50;94323.19;;;32.86;35.43
32243;BME280;18731;42.830;24.390;2022-08-19T08:28:19;94327.56;;;33.07;33.18
32243;BME280;18731;42.830;24.390;2022-08-19T08:30:46;94324.50;;;33.05;33.18
32243;BME280;18731;42.830;24.390;2022-08-19T08:33:14;94318.00;;;33.23;31.33
32243;BME280;18731;42.830;24.390;2022-08-19T08:35:42;94323.66;;;33.14;32.06
32243;BME280;18731;42.830;24.390;2022-08-19T08:38:08;94323.53;;;33.38;32.11
32243;BME280;18731;42.830;24.390;2022-08-19T08:40:48;94316.25;;;33.55;31.03
32243;BME280;18731;42.830;24.390;2022-08-19T08:43:27;94315.72;;;33.86;31.94
32243;BME280;18731;42.830;24.390;2022-08-19T08:46:04;94318.44;;;34.21;34.01
32243;BME280;18731;42.830;24.390;2022-08-19T08:48:37;94294.88;;;34.31;31.11
32243;BME280;18731;42.830;24.390;2022-08-19T08:51:14;94306.81;;;34.37;31.16
32243;BME280;18731;42.830;24.390;2022-08-19T08:53:44;94312.00;;;34.30;29.90
32243;BME280;18731;42.830;24.390;2022-08-19T08:56:11;94302.66;;;34.27;32.82
32243;BME280;18731;42.830;24.390;2022-08-19T08:59:00;94299.88;;;34.27;29.29
32243;BME280;18731;42.830;24.390;2022-08-19T09:01:27;94303.34;;;34.42;32.04
32243;BME280;18731;42.830;24.390;2022-08-19T09:03:53;94306.53;;;34.35;31.21
32243;BME280;18731;42.830;24.390;2022-08-19T09:06:39;94300.63;;;34.28;29.31
32243;BME280;18731;42.830;24.390;2022-08-19T09:09:37;94307.22;;;34.30;29.89
32243;BME280;18731;42.830;24.390;2022-08-19T09:14:46;94299.88;;;34.07;30.34
32243;BME280;18731;42.830;24.390;2022-08-19T09:17:14;94303.22;;;34.11;30.15
32243;BME280;18731;42.830;24.390;2022-08-19T09:19:55;94309.91;;;33.84;31.84
32243;BME280;18731;42.830;24.390;2022-08-19T09:22:22;94301.75;;;34.15;31.55
32243;BME280;18731;42.830;24.390;2022-08-19T09:24:49;94301.28;;;34.17;29.66
32243;BME280;18731;42.830;24.390;2022-08-19T09:27:19;94304.72;;;33.92;29.51
32243;BME280;18731;42.830;24.390;2022-08-19T09:29:46;94294.63;;;33.89;30.10
32243;BME280;18731;42.830;24.390;2022-08-19T09:32:14;94295.03;;;33.81;30.80
32243;BME280;18731;42.830;24.390;2022-08-19T09:34:40;94295.59;;;33.71;30.98
32243;BME280;18731;42.830;24.390;2022-08-19T09:37:07;94294.84;;;33.85;30.69
32243;BME280;18731;42.830;24.390;2022-08-19T09:39:32;94284.13;;;33.78;30.54
32243;BME280;18731;42.830;24.390;2022-08-19T09:41:58;94292.63;;;33.39;31.87
32243;BME280;18731;42.830;24.390;2022-08-19T09:44:24;94283.59;;;33.09;31.09
32243;BME280;18731;42.830;24.390;2022-08-19T09:46:50;94241.94;;;32.69;28.53
32243;BME280;18731;42.830;24.390;2022-08-19T09:49:18;94294.16;;;33.25;30.81
32243;BME280;18731;42.830;24.390;2022-08-19T09:51:44;94277.69;;;33.16;30.88
32243;BME280;18731;42.830;24.390;2022-08-19T09:54:14;94286.16;;;33.28;30.27
32243;BME280;18731;42.830;24.390;2022-08-19T09:56:40;94288.09;;;32.92;30.03
32243;BME280;18731;42.830;24.390;2022-08-19T09:59:05;94284.94;;;32.99;30.41
32243;BME280;18731;42.830;24.390;2022-08-19T10:01:33;94275.72;;;32.87;29.86
32243;BME280;18731;42.830;24.390;2022-08-19T10:04:00;94275.44;;;32.85;29.47
32243;BME280;18731;42.830;24.390;2022-08-19T10:06:29;94271.06;;;33.29;28.07
32243;BME280;18731;42.830;24.390;2022-08-19T10:08:58;94263.88;;;33.51;29.03
32243;BME280;18731;42.830;24.390;2022-08-19T10:11:26;94253.94;;;33.80;30.09
32243;BME280;18731;42.830;24.390;2022-08-19T10:13:53;94252.19;;;33.97;28.79
32243;BME280;18731;42.830;24.390;2022-08-19T10:16:20;94274.72;;;34.31;31.57
32243;BME280;18731;42.830;24.390;2022-08-19T10:18:49;94271.28;;;34.36;27.96
32243;BME280;18731;42.830;24.390;2022-08-19T10:21:20;94266.47;;;34.57;28.65
32243;BME280;18731;42.830;24.390;2022-08-19T10:23:50;94263.41;;;34.80;28.15
32243;BME280;18731;42.830;24.390;2022-08-19T10:26:21;94261.09;;;35.05;27.97
32243;BME280;18731;42.830;24.390;2022-08-19T10:28:48;94279.31;;;35.11;27.18
32243;BME280;18731;42.830;24.390;2022-08-19T10:31:26;94275.50;;;35.09;28.11
32243;BME280;18731;42.830;24.390;2022-08-19T10:33:54;94269.75;;;35.12;25.93
32243;BME280;18731;42.830;24.390;2022-08-19T10:36:26;94274.22;;;35.04;27.29
32243;BME280;18731;42.830;24.390;2022-08-19T10:38:55;94256.03;;;34.72;26.11
32243;BME280;18731;42.830;24.390;2022-08-19T10:41:26;94260.09;;;34.76;27.43
32243;BME280;18731;42.830;24.390;2022-08-19T10:43:57;94269.88;;;34.98;27.88
32243;BME280;18731;42.830;24.390;2022-08-19T10:46:25;94265.38;;;35.00;28.15
32243;BME280;18731;42.830;24.390;2022-08-19T10:48:52;94268.44;;;35.08;26.45
32243;BME280;18731;42.830;24.390;2022-08-19T10:51:19;94261.75;;;34.89;25.90
32243;BME280;18731;42.830;24.390;2022-08-19T10:54:03;94246.53;;;34.53;26.17
32243;BME280;18731;42.830;24.390;2022-08-19T10:56:30;94254.06;;;34.78;27.02
32243;BME280;18731;42.830;24.390;2022-08-19T10:59:17;94249.25;;;35.04;27.55
32243;BME280;18731;42.830;24.390;2022-08-19T11:01:45;94248.22;;;35.33;26.15
32243;BME280;18731;42.830;24.390;2022-08-19T11:04:12;94226.59;;;35.43;26.47
32243;BME280;18731;42.830;24.390;2022-08-19T11:06:43;94248.75;;;35.37;25.92
32243;BME280;18731;42.830;24.390;2022-08-19T11:09:10;94247.47;;;35.33;24.81
32243;BME280;18731;42.830;24.390;2022-08-19T11:11:37;94246.91;;;35.29;25.94
32243;BME280;18731;42.830;24.390;2022-08-19T11:14:15;94228.75;;;35.70;27.54
32243;BME280;18731;42.830;24.390;2022-08-19T11:16:41;94239.94;;;35.82;26.88
32243;BME280;18731;42.830;24.390;2022-08-19T11:19:09;94244.25;;;35.88;25.60
32243;BME280;18731;42.830;24.390;2022-08-19T11:21:39;94241.78;;;36.07;24.29
32243;BME280;18731;42.830;24.390;2022-08-19T11:24:08;94235.06;;;36.30;24.87
32243;BME280;18731;42.830;24.390;2022-08-19T11:26:36;94241.50;;;36.70;23.47
32243;BME280;18731;42.830;24.390;2022-08-19T11:29:02;94230.97;;;36.20;24.71
32243;BME280;18731;42.830;24.390;2022-08-19T11:31:30;94246.56;;;35.16;25.68
32243;BME280;18731;42.830;24.390;2022-08-19T11:33:58;94254.28;;;35.00;24.83
32243;BME280;18731;42.830;24.390;2022-08-19T11:36:25;94242.81;;;34.87;26.32
32243;BME280;18731;42.830;24.390;2022-08-19T11:38:52;94239.69;;;35.05;27.93
32243;BME280;18731;42.830;24.390;2022-08-19T11:41:21;94216.00;;;35.10;26.08
32243;BME280;18731;42.830;24.390;2022-08-19T11:43:52;94228.00;;;34.96;27.40
32243;BME280;18731;42.830;24.390;2022-08-19T11:46:19;94228.56;;;35.37;26.95
32243;BME280;18731;42.830;24.390;2022-08-19T11:48:45;94229.09;;;35.41;26.00
32243;BME280;18731;42.830;24.390;2022-08-19T11:51:17;94227.84;;;35.90;26.32
32243;BME280;18731;42.830;24.390;2022-08-19T11:53:44;94221.31;;;35.99;25.23
32243;BME280;18731;42.830;24.390;2022-08-19T11:56:11;94227.03;;;36.44;26.39
32243;BME280;18731;42.830;24.390;2022-08-19T11:58:38;94203.53;;;35.80;25.68
32243;BME280;18731;42.830;24.390;2022-08-19T12:01:12;94211.03;;;35.62;26.75
32243;BME280;18731;42.830;24.390;2022-08-19T12:03:41;94213.22;;;35.90;26.86
32243;BME280;18731;42.830;24.390;2022-08-19T12:06:11;94204.69;;;36.16;24.42
32243;BME280;18731;42.830;24.390;2022-08-19T12:08:40;94200.78;;;36.45;25.24
32243;BME280;18731;42.830;24.390;2022-08-19T12:11:06;94207.34;;;36.53;24.10
32243;BME280;18731;42.830;24.390;2022-08-19T12:13:35;94200.22;;;36.40;24.59
32243;BME280;18731;42.830;24.390;2022-08-19T12:16:26;94168.66;;;35.67;26.83
32243;BME280;18731;42.830;24.390;2022-08-19T12:18:53;94198.59;;;36.06;26.43
32243;BME280;18731;42.830;24.390;2022-08-19T12:21:23;94208.94;;;35.94;26.28
32243;BME280;18731;42.830;24.390;2022-08-19T12:23:55;94196.44;;;35.67;26.22
32243;BME280;18731;42.830;24.390;2022-08-19T12:26:21;94199.31;;;35.84;27.15
32243;BME280;18731;42.830;24.390;2022-08-19T12:28:47;94193.09;;;36.17;26.37
32243;BME280;18731;42.830;24.390;2022-08-19T12:31:14;94202.03;;;36.55;24.77
32243;BME280;18731;42.830;24.390;2022-08-19T12:33:41;94197.50;;;36.57;23.72
32243;BME280;18731;42.830;24.390;2022-08-19T12:36:09;94197.53;;;36.80;24.35
32243;BME280;18731;42.830;24.390;2022-08-19T12:38:36;94192.22;;;36.87;23.40
32243;BME280;18731;42.830;24.390;2022-08-19T12:41:03;94189.94;;;36.86;24.37
32243;BME280;18731;42.830;24.390;2022-08-19T12:43:34;94193.22;;;36.84;24.73
32243;BME280;18731;42.830;24.390;2022-08-19T12:46:01;94194.75;;;36.85;24.75
32243;BME280;18731;42.830;24.390;2022-08-19T12:48:27;94183.84;;;36.59;24.92
32243;BME280;18731;42.830;24.390;2022-08-19T12:50:54;94172.47;;;36.63;24.42
32243;BME280;18731;42.830;24.390;2022-08-19T12:53:20;94189.00;;;36.07;24.77
32243;BME280;18731;42.830;24.390;2022-08-19T12:55:46;94190.25;;;35.95;24.70
32243;BME280;18731;42.830;24.390;2022-08-19T12:58:12;94193.53;;;35.99;25.86
32243;BME280;18731;42.830;24.390;2022-08-19T13:00:38;94183.66;;;35.87;24.61
32243;BME280;18731;42.830;24.390;2022-08-19T13:03:03;94186.66;;;35.83;25.36
32243;BME280;18731;42.830;24.390;2022-08-19T13:05:32;94190.97;;;35.84;27.00
32243;BME280;18731;42.830;24.390;2022-08-19T13:07:58;94188.22;;;35.95;25.42
32243;BME280;18731;42.830;24.390;2022-08-19T13:10:28;94182.97;;;36.14;27.35
32243;BME280;18731;42.830;24.390;2022-08-19T13:12:54;94176.34;;;35.95;25.96
32243;BME280;18731;42.830;24.390;2022-08-19T13:15:22;94180.03;;;35.69;25.12
32243;BME280;18731;42.830;24.390;2022-08-19T13:17:50;94179.81;;;35.30;26.74
32243;BME280;18731;42.830;24.390;2022-08-19T13:20:18;94183.03;;;35.18;25.91
32243;BME280;18731;42.830;24.390;2022-08-19T13:22:46;94159.88;;;34.84;27.05
32243;BME280;18731;42.830;24.390;2022-08-19T13:25:12;94172.56;;;34.96;26.01
32243;BME280;18731;42.830;24.390;2022-08-19T13:27:39;94157.63;;;34.88;27.15
32243;BME280;18731;42.830;24.390;2022-08-19T13:30:07;94165.00;;;34.96;26.92
32243;BME280;18731;42.830;24.390;2022-08-19T13:32:52;94174.28;;;34.93;26.76
32243;BME280;18731;42.830;24.390;2022-08-19T13:35:41;94173.53;;;34.93;26.55
32243;BME280;18731;42.830;24.390;2022-08-19T13:38:08;94159.94;;;34.95;26.20
32243;BME280;18731;42.830;24.390;2022-08-19T13:40:34;94175.25;;;35.27;27.26
32243;BME280;18731;42.830;24.390;2022-08-19T13:43:01;94165.72;;;34.91;27.74
32243;BME280;18731;42.830;24.390;2022-08-19T13:45:30;94167.75;;;34.65;26.86
32243;BME280;18731;42.830;24.390;2022-08-19T13:48:01;94159.56;;;33.98;28.12
32243;BME280;18731;42.830;24.390;2022-08-19T13:50:29;94172.50;;;33.66;27.56
32243;BME280;18731;42.830;24.390;2022-08-19T13:52:56;94167.81;;;33.52;29.02
32243;BME280;18731;42.830;24.390;2022-08-19T13:55:23;94183.66;;;33.92;27.02
32243;BME280;18731;42.830;24.390;2022-08-19T13:57:53;94164.84;;;34.22;27.21
32243;BME280;18731;42.830;24.390;2022-08-19T14:00:20;94159.34;;;34.54;27.00
32243;BME280;18731;42.830;24.390;2022-08-19T14:02:50;94175.28;;;34.90;25.93
32243;BME280;18731;42.830;24.390;2022-08-19T14:05:16;94169.63;;;35.10;26.85
32243;BME280;18731;42.830;24.390;2022-08-19T14:07:43;94161.94;;;35.31;25.26
32243;BME280;18731;42.830;24.390;2022-08-19T14:10:11;94169.09;;;35.49;26.32
32243;BME280;18731;42.830;24.390;2022-08-19T14:12:38;94151.13;;;35.39;25.13
32243;BME280;18731;42.830;24.390;2022-08-19T14:15:06;94128.41;;;35.35;28.94
32243;BME280;18731;42.830;24.390;2022-08-19T14:17:32;94148.19;;;35.59;27.63
32243;BME280;18731;42.830;24.390;2022-08-19T14:20:02;94164.59;;;35.63;29.29
32243;BME280;18731;42.830;24.390;2022-08-19T14:22:40;94166.75;;;35.36;26.75
32243;BME280;18731;42.830;24.390;2022-08-19T14:25:09;94123.75;;;35.15;26.79
32243;BME280;18731;42.830;24.390;2022-08-19T14:27:37;94172.06;;;35.40;25.54
32243;BME280;18731;42.830;24.390;2022-08-19T14:30:04;94128.75;;;35.05;24.24
32243;BME280;18731;42.830;24.390;2022-08-19T14:32:31;94170.94;;;35.21;24.61
32243;BME280;18731;42.830;24.390;2022-08-19T14:34:57;94153.72;;;35.11;25.92
32243;BME280;18731;42.830;24.390;2022-08-19T14:37:23;94159.25;;;35.05;27.50
32243;BME280;18731;42.830;24.390;2022-08-19T14:39:48;94167.31;;;35.03;29.48
32243;BME280;18731;42.830;24.390;2022-08-19T14:42:14;94162.94;;;34.91;28.55
32243;BME280;18731;42.830;24.390;2022-08-19T14:44:41;94158.31;;;34.25;27.23
32243;BME280;18731;42.830;24.390;2022-08-19T14:47:07;94167.78;;;33.72;28.32
32243;BME280;18731;42.830;24.390;2022-08-19T14:49:34;94139.28;;;33.25;28.32
32243;BME280;18731;42.830;24.390;2022-08-19T14:52:00;94139.50;;;32.72;30.13
32243;BME280;18731;42.830;24.390;2022-08-19T14:54:25;94138.88;;;32.63;32.65
32243;BME280;18731;42.830;24.390;2022-08-19T14:56:51;94145.03;;;32.72;33.87
32243;BME280;18731;42.830;24.390;2022-08-19T14:59:17;94138.13;;;32.47;31.40
32243;BME280;18731;42.830;24.390;2022-08-19T15:01:43;94154.69;;;32.18;30.41
32243;BME280;18731;42.830;24.390;2022-08-19T15:04:09;94134.25;;;31.71;33.36
32243;BME280;18731;42.830;24.390;2022-08-19T15:06:35;94150.44;;;31.78;35.37
32243;BME280;18731;42.830;24.390;2022-08-19T15:09:01;94145.34;;;31.14;31.85
32243;BME280;18731;42.830;24.390;2022-08-19T15:11:28;94139.38;;;31.16;35.71
32243;BME280;18731;42.830;24.390;2022-08-19T15:13:55;94148.31;;;31.34;36.33
32243;BME280;18731;42.830;24.390;2022-08-19T15:16:23;94149.31;;;31.22;33.51
32243;BME280;18731;42.830;24.390;2022-08-19T15:18:53;94148.44;;;31.07;32.77
32243;BME280;18731;42.830;24.390;2022-08-19T15:21:20;94137.84;;;30.82;33.64
32243;BME280;18731;42.830;24.390;2022-08-19T15:23:48;94133.91;;;30.74;33.51
32243;BME280;18731;42.830;24.390;2022-08-19T15:26:15;94141.84;;;30.81;36.69
32243;BME280;18731;42.830;24.390;2022-08-19T15:28:41;94116.75;;;30.79;35.39
32243;BME280;18731;42.830;24.390;2022-08-19T15:31:07;94135.28;;;31.02;34.78
32243;BME280;18731;42.830;24.390;2022-08-19T15:33:36;94125.03;;;31.02;37.30
32243;BME280;18731;42.830;24.390;2022-08-19T15:36:04;94132.66;;;31.08;36.82
32243;BME280;18731;42.830;24.390;2022-08-19T15:38:31;94127.97;;;30.99;36.41
32243;BME280;18731;42.830;24.390;2022-08-19T15:41:02;94128.19;;;31.10;36.65
32243;BME280;18731;42.830;24.390;2022-08-19T15:44:10;94138.41;;;30.95;36.70
32243;BME280;18731;42.830;24.390;2022-08-19T15:46:38;94135.34;;;30.93;36.97
32243;BME280;18731;42.830;24.390;2022-08-19T15:49:06;94138.69;;;30.97;37.60
32243;BME280;18731;42.830;24.390;2022-08-19T15:51:34;94134.69;;;30.98;38.16
32243;BME280;18731;42.830;24.390;2022-08-19T15:54:04;94117.34;;;30.83;35.38
32243;BME280;18731;42.830;24.390;2022-08-19T15:56:30;94136.31;;;30.81;37.85
32243;BME280;18731;42.830;24.390;2022-08-19T15:59:16;94125.09;;;30.60;39.42
32243;BME280;18731;42.830;24.390;2022-08-19T16:02:01;94135.66;;;30.53;38.95